sensor_id;sensor_type;location;lat;lon;timestamp;temperature;humidity
24338;DHT22;12457;50.832;4.346;2023-04-15T00:01:25;11.30;53.90
24338;DHT22;12457;50.832;4.346;2023-04-15T00:03:52;11.10;57.90
24338;DHT22;12457;50.832;4.346;2023-04-15T00:06:20;11.10;61.00
24338;DHT22;12457;50.832;4.346;2023-04-15T00:08:47;10.90;64.40
24338;DHT22;12457;50.832;4.346;2023-04-15T00:11:13;11.10;63.60
24338;DHT22;12457;50.832;4.346;2023-04-15T00:13:40;11.10;64.10
24338;DHT22;12457;50.832;4.346;2023-04-15T00:16:07;11.10;61.20
24338;DHT22;12457;50.832;4.346;2023-04-15T00:18:33;11.30;59.40
24338;DHT22;12457;50.832;4.346;2023-04-15T00:20:59;11.20;58.90
24338;DHT22;12457;50.832;4.346;2023-04-15T00:23:25;11.20;62.60
24338;DHT22;12457;50.832;4.346;2023-04-15T00:25:51;11.20;63.90
24338;DHT22;12457;50.832;4.346;2023-04-15T00:28:17;11.20;65.70
24338;DHT22;12457;50.832;4.346;2023-04-15T00:30:43;11.20;66.70
24338;DHT22;12457;50.832;4.346;2023-04-15T00:33:11;11.30;65.70
24338;DHT22;12457;50.832;4.346;2023-04-15T00:35:37;11.30;68.40
24338;DHT22;12457;50.832;4.346;2023-04-15T00:38:04;11.10;69.40
24338;DHT22;12457;50.832;4.346;2023-04-15T00:40:30;11.00;77.80
24338;DHT22;12457;50.832;4.346;2023-04-15T00:42:56;10.80;82.70
24338;DHT22;12457;50.832;4.346;2023-04-15T00:45:21;10.80;86.70
24338;DHT22;12457;50.832;4.346;2023-04-15T00:47:47;10.70;92.00
24338;DHT22;12457;50.832;4.346;2023-04-15T00:50:13;10.50;96.30
24338;DHT22;12457;50.832;4.346;2023-04-15T00:52:39;10.40;97.20
24338;DHT22;12457;50.832;4.346;2023-04-15T00:55:06;10.30;99.20
24338;DHT22;12457;50.832;4.346;2023-04-15T00:57:32;10.30;98.20
24338;DHT22;12457;50.832;4.346;2023-04-15T00:59:58;10.30;98.90
24338;DHT22;12457;50.832;4.346;2023-04-15T01:02:26;10.40;98.40
24338;DHT22;12457;50.832;4.346;2023-04-15T01:04:52;10.50;99.50
24338;DHT22;12457;50.832;4.346;2023-04-15T01:07:18;10.40;99.90
24338;DHT22;12457;50.832;4.346;2023-04-15T01:09:44;10.30;99.90
24338;DHT22;12457;50.832;4.346;2023-04-15T01:12:12;10.20;99.90
24338;DHT22;12457;50.832;4.346;2023-04-15T01:14:39;10.20;99.90
24338;DHT22;12457;50.832;4.346;2023-04-15T01:17:05;10.30;99.90
24338;DHT22;12457;50.832;4.346;2023-04-15T01:19:32;10.20;99.90
24338;DHT22;12457;50.832;4.346;2023-04-15T01:22:35;10.10;99.90
24338;DHT22;12457;50.832;4.346;2023-04-15T01:25:17;10.10;99.90
24338;DHT22;12457;50.832;4.346;2023-04-15T01:27:42;10.10;99.90
24338;DHT22;12457;50.832;4.346;2023-04-15T01:30:09;10.00;99.90
24338;DHT22;12457;50.832;4.346;2023-04-15T01:32:36;9.90;99.90
24338;DHT22;12457;50.832;4.346;2023-04-15T01:35:02;10.00;99.90
24338;DHT22;12457;50.832;4.346;2023-04-15T01:37:28;10.10;99.90
24338;DHT22;12457;50.832;4.346;2023-04-15T01:39:54;10.00;99.90
24338;DHT22;12457;50.832;4.346;2023-04-15T01:42:21;9.90;99.90
24338;DHT22;12457;50.832;4.346;2023-04-15T01:44:47;9.80;99.90
24338;DHT22;12457;50.832;4.346;2023-04-15T01:47:13;9.90;99.90
24338;DHT22;12457;50.832;4.346;2023-04-15T01:49:39;9.90;99.90
24338;DHT22;12457;50.832;4.346;2023-04-15T01:52:05;9.90;99.90
24338;DHT22;12457;50.832;4.346;2023-04-15T01:54:30;9.90;99.90
24338;DHT22;12457;50.832;4.346;2023-04-15T01:56:56;9.80;99.90
24338;DHT22;12457;50.832;4.346;2023-04-15T01:59:22;9.70;99.90
24338;DHT22;12457;50.832;4.346;2023-04-15T02:01:48;9.70;99.90
24338;DHT22;12457;50.832;4.346;2023-04-15T02:04:15;9.80;99.90
24338;DHT22;12457;50.832;4.346;2023-04-15T02:06:42;10.00;99.90
24338;DHT22;12457;50.832;4.346;2023-04-15T02:09:09;10.10;99.90
24338;DHT22;12457;50.832;4.346;2023-04-15T02:11:35;10.10;99.90
24338;DHT22;12457;50.832;4.346;2023-04-15T02:14:02;10.10;99.90
24338;DHT22;12457;50.832;4.346;2023-04-15T02:16:30;10.10;99.90
24338;DHT22;12457;50.832;4.346;2023-04-15T02:18:56;10.20;99.90
24338;DHT22;12457;50.832;4.346;2023-04-15T02:21:22;10.10;99.90
24338;DHT22;12457;50.832;4.346;2023-04-15T02:23:49;10.20;99.90
24338;DHT22;12457;50.832;4.346;2023-04-15T02:26:15;10.10;99.90
24338;DHT22;12457;50.832;4.346;2023-04-15T02:28:41;10.10;99.90
24338;DHT22;12457;50.832;4.346;2023-04-15T02:31:07;10.10;99.90
24338;DHT22;12457;50.832;4.346;2023-04-15T02:33:34;10.10;99.90
24338;DHT22;12457;50.832;4.346;2023-04-15T02:36:00;10.00;99.90
24338;DHT22;12457;50.832;4.346;2023-04-15T02:38:28;10.00;99.90
24338;DHT22;12457;50.832;4.346;2023-04-15T02:40:56;9.90;99.90
24338;DHT22;12457;50.832;4.346;2023-04-15T02:43:22;9.80;99.90
24338;DHT22;12457;50.832;4.346;2023-04-15T02:45:49;9.70;99.90
24338;DHT22;12457;50.832;4.346;2023-04-15T02:48:15;9.60;99.90
24338;DHT22;12457;50.832;4.346;2023-04-15T02:50:44;9.60;99.90
24338;DHT22;12457;50.832;4.346;2023-04-15T02:53:10;9.60;99.90
24338;DHT22;12457;50.832;4.346;2023-04-15T02:55:36;9.70;99.90
24338;DHT22;12457;50.832;4.346;2023-04-15T02:58:01;9.80;99.90
24338;DHT22;12457;50.832;4.346;2023-04-15T03:00:27;9.80;99.90
24338;DHT22;12457;50.832;4.346;2023-04-15T03:03:01;9.80;99.90
24338;DHT22;12457;50.832;4.346;2023-04-15T03:05:27;9.90;99.90
24338;DHT22;12457;50.832;4.346;2023-04-15T03:07:53;9.80;99.90
24338;DHT22;12457;50.832;4.346;2023-04-15T03:10:19;9.80;99.90
24338;DHT22;12457;50.832;4.346;2023-04-15T03:12:45;9.70;99.90
24338;DHT22;12457;50.832;4.346;2023-04-15T03:15:11;9.70;99.90
24338;DHT22;12457;50.832;4.346;2023-04-15T03:17:37;9.70;99.90
24338;DHT22;12457;50.832;4.346;2023-04-15T03:20:04;9.70;99.90
24338;DHT22;12457;50.832;4.346;2023-04-15T03:22:33;9.60;99.90
24338;DHT22;12457;50.832;4.346;2023-04-15T03:24:58;9.50;99.90
24338;DHT22;12457;50.832;4.346;2023-04-15T03:27:25;9.50;99.90
24338;DHT22;12457;50.832;4.346;2023-04-15T03:29:50;9.30;99.90
24338;DHT22;12457;50.832;4.346;2023-04-15T03:32:16;9.20;99.90
24338;DHT22;12457;50.832;4.346;2023-04-15T03:34:42;9.20;99.90
24338;DHT22;12457;50.832;4.346;2023-04-15T03:37:08;9.20;99.90
24338;DHT22;12457;50.832;4.346;2023-04-15T03:39:34;9.10;99.90
24338;DHT22;12457;50.832;4.346;2023-04-15T03:42:00;9.10;99.90
24338;DHT22;12457;50.832;4.346;2023-04-15T03:44:26;9.00;99.90
24338;DHT22;12457;50.832;4.346;2023-04-15T03:46:53;9.00;99.90
24338;DHT22;12457;50.832;4.346;2023-04-15T03:49:19;8.90;99.90
24338;DHT22;12457;50.832;4.346;2023-04-15T03:51:45;8.90;99.90
24338;DHT22;12457;50.832;4.346;2023-04-15T03:54:11;8.90;99.90
24338;DHT22;12457;50.832;4.346;2023-04-15T03:56:40;9.00;99.90
24338;DHT22;12457;50.832;4.346;2023-04-15T03:59:07;9.00;99.90
24338;DHT22;12457;50.832;4.346;2023-04-15T04:01:32;8.90;99.90
24338;DHT22;12457;50.832;4.346;2023-04-15T04:03:58;9.00;99.90
24338;DHT22;12457;50.832;4.346;2023-04-15T04:06:24;8.90;99.90
24338;DHT22;12457;50.832;4.346;2023-04-15T04:08:52;8.90;99.90
24338;DHT22;12457;50.832;4.346;2023-04-15T04:11:18;8.80;99.90
24338;DHT22;12457;50.832;4.346;2023-04-15T04:13:43;8.80;99.90
24338;DHT22;12457;50.832;4.346;2023-04-15T04:16:09;8.80;99.90
24338;DHT22;12457;50.832;4.346;2023-04-15T04:18:35;8.70;99.90
24338;DHT22;12457;50.832;4.346;2023-04-15T04:21:01;8.70;99.90
24338;DHT22;12457;50.832;4.346;2023-04-15T04:23:26;8.60;99.90
24338;DHT22;12457;50.832;4.346;2023-04-15T04:25:52;8.50;99.90
24338;DHT22;12457;50.832;4.346;2023-04-15T04:28:18;8.50;99.90
24338;DHT22;12457;50.832;4.346;2023-04-15T04:30:44;8.50;99.90
24338;DHT22;12457;50.832;4.346;2023-04-15T04:33:09;8.50;99.90
24338;DHT22;12457;50.832;4.346;2023-04-15T04:35:36;8.40;99.90
24338;DHT22;12457;50.832;4.346;2023-04-15T04:38:02;8.40;99.90
24338;DHT22;12457;50.832;4.346;2023-04-15T04:40:29;8.40;99.90
24338;DHT22;12457;50.832;4.346;2023-04-15T04:42:55;8.50;99.90
24338;DHT22;12457;50.832;4.346;2023-04-15T04:45:21;8.50;99.90
24338;DHT22;12457;50.832;4.346;2023-04-15T04:47:47;8.60;99.90
24338;DHT22;12457;50.832;4.346;2023-04-15T04:50:13;8.60;99.90
24338;DHT22;12457;50.832;4.346;2023-04-15T04:52:38;8.60;99.90
24338;DHT22;12457;50.832;4.346;2023-04-15T04:55:05;8.50;99.90
24338;DHT22;12457;50.832;4.346;2023-04-15T04:57:31;8.60;99.90
24338;DHT22;12457;50.832;4.346;2023-04-15T04:59:56;8.50;99.90
24338;DHT22;12457;50.832;4.346;2023-04-15T05:02:22;8.50;99.90
24338;DHT22;12457;50.832;4.346;2023-04-15T05:04:48;8.40;99.90
24338;DHT22;12457;50.832;4.346;2023-04-15T05:07:14;8.40;99.90
24338;DHT22;12457;50.832;4.346;2023-04-15T05:09:40;8.50;99.90
24338;DHT22;12457;50.832;4.346;2023-04-15T05:12:07;8.60;99.90
24338;DHT22;12457;50.832;4.346;2023-04-15T05:14:33;8.60;99.90
24338;DHT22;12457;50.832;4.346;2023-04-15T05:16:59;8.60;99.90
24338;DHT22;12457;50.832;4.346;2023-04-15T05:19:25;8.70;99.90
24338;DHT22;12457;50.832;4.346;2023-04-15T05:21:50;8.70;99.90
24338;DHT22;12457;50.832;4.346;2023-04-15T05:24:16;8.60;99.90
24338;DHT22;12457;50.832;4.346;2023-04-15T05:26:42;8.60;99.90
24338;DHT22;12457;50.832;4.346;2023-04-15T05:29:08;8.60;99.90
24338;DHT22;12457;50.832;4.346;2023-04-15T05:31:34;8.50;99.90
24338;DHT22;12457;50.832;4.346;2023-04-15T05:34:00;8.60;99.90
24338;DHT22;12457;50.832;4.346;2023-04-15T05:36:25;8.60;99.90
24338;DHT22;12457;50.832;4.346;2023-04-15T05:38:52;8.60;99.90
24338;DHT22;12457;50.832;4.346;2023-04-15T05:41:18;8.70;99.90
24338;DHT22;12457;50.832;4.346;2023-04-15T05:43:43;8.80;99.90
24338;DHT22;12457;50.832;4.346;2023-04-15T05:46:09;8.80;99.90
24338;DHT22;12457;50.832;4.346;2023-04-15T05:48:35;8.90;99.90
24338;DHT22;12457;50.832;4.346;2023-04-15T05:51:01;8.90;99.90
24338;DHT22;12457;50.832;4.346;2023-04-15T05:53:26;8.90;99.90
24338;DHT22;12457;50.832;4.346;2023-04-15T05:55:52;8.90;99.90
24338;DHT22;12457;50.832;4.346;2023-04-15T05:58:19;9.00;99.90
24338;DHT22;12457;50.832;4.346;2023-04-15T06:00:45;9.00;99.90
24338;DHT22;12457;50.832;4.346;2023-04-15T06:03:10;9.00;99.90
24338;DHT22;12457;50.832;4.346;2023-04-15T06:05:37;9.00;99.90
24338;DHT22;12457;50.832;4.346;2023-04-15T06:08:03;9.20;99.90
24338;DHT22;12457;50.832;4.346;2023-04-15T06:10:29;9.10;99.90
24338;DHT22;12457;50.832;4.346;2023-04-15T06:12:55;8.90;99.90
24338;DHT22;12457;50.832;4.346;2023-04-15T06:15:21;8.90;99.90
24338;DHT22;12457;50.832;4.346;2023-04-15T06:17:47;8.80;99.90
24338;DHT22;12457;50.832;4.346;2023-04-15T06:20:12;8.70;99.90
24338;DHT22;12457;50.832;4.346;2023-04-15T06:22:38;8.70;99.90
24338;DHT22;12457;50.832;4.346;2023-04-15T06:25:19;8.80;99.90
24338;DHT22;12457;50.832;4.346;2023-04-15T06:27:47;8.90;99.90
24338;DHT22;12457;50.832;4.346;2023-04-15T06:30:13;9.10;99.90
24338;DHT22;12457;50.832;4.346;2023-04-15T06:32:38;9.40;99.90
24338;DHT22;12457;50.832;4.346;2023-04-15T06:35:04;9.60;99.90
24338;DHT22;12457;50.832;4.346;2023-04-15T06:37:30;9.60;97.40
24338;DHT22;12457;50.832;4.346;2023-04-15T06:39:58;9.80;98.70
24338;DHT22;12457;50.832;4.346;2023-04-15T06:42:23;9.90;91.90
24338;DHT22;12457;50.832;4.346;2023-04-15T06:44:49;10.00;93.40
24338;DHT22;12457;50.832;4.346;2023-04-15T06:47:15;9.90;98.30
24338;DHT22;12457;50.832;4.346;2023-04-15T06:49:41;10.00;99.90
24338;DHT22;12457;50.832;4.346;2023-04-15T06:52:09;10.00;98.10
24338;DHT22;12457;50.832;4.346;2023-04-15T06:54:34;10.20;93.40
24338;DHT22;12457;50.832;4.346;2023-04-15T06:57:00;10.40;88.00
24338;DHT22;12457;50.832;4.346;2023-04-15T06:59:26;10.40;70.90
24338;DHT22;12457;50.832;4.346;2023-04-15T07:01:51;10.50;91.10
24338;DHT22;12457;50.832;4.346;2023-04-15T07:04:17;10.60;93.30
24338;DHT22;12457;50.832;4.346;2023-04-15T07:06:43;10.80;91.00
24338;DHT22;12457;50.832;4.346;2023-04-15T07:09:09;11.10;71.30
24338;DHT22;12457;50.832;4.346;2023-04-15T07:11:35;11.20;54.50
24338;DHT22;12457;50.832;4.346;2023-04-15T07:14:01;11.20;71.80
24338;DHT22;12457;50.832;4.346;2023-04-15T07:16:26;11.40;58.90
24338;DHT22;12457;50.832;4.346;2023-04-15T07:18:52;11.20;61.40
24338;DHT22;12457;50.832;4.346;2023-04-15T07:21:18;11.30;35.60
24338;DHT22;12457;50.832;4.346;2023-04-15T07:23:44;11.30;46.20
24338;DHT22;12457;50.832;4.346;2023-04-15T07:26:10;11.50;42.80
24338;DHT22;12457;50.832;4.346;2023-04-15T07:28:35;11.60;15.60
24338;DHT22;12457;50.832;4.346;2023-04-15T07:31:01;11.40;19.40
24338;DHT22;12457;50.832;4.346;2023-04-15T07:33:27;11.30;27.40
24338;DHT22;12457;50.832;4.346;2023-04-15T07:35:52;10.90;40.50
24338;DHT22;12457;50.832;4.346;2023-04-15T07:38:18;10.80;50.80
24338;DHT22;12457;50.832;4.346;2023-04-15T07:40:45;10.70;29.10
24338;DHT22;12457;50.832;4.346;2023-04-15T07:43:11;10.60;53.20
24338;DHT22;12457;50.832;4.346;2023-04-15T07:45:37;10.50;56.60
24338;DHT22;12457;50.832;4.346;2023-04-15T07:48:03;10.50;73.70
24338;DHT22;12457;50.832;4.346;2023-04-15T07:50:30;10.40;67.20
24338;DHT22;12457;50.832;4.346;2023-04-15T07:52:56;10.40;58.80
24338;DHT22;12457;50.832;4.346;2023-04-15T07:55:25;10.50;65.10
24338;DHT22;12457;50.832;4.346;2023-04-15T07:57:50;10.50;59.60
24338;DHT22;12457;50.832;4.346;2023-04-15T08:00:16;10.30;68.60
24338;DHT22;12457;50.832;4.346;2023-04-15T08:02:42;10.30;49.80
24338;DHT22;12457;50.832;4.346;2023-04-15T08:05:09;10.20;73.60
24338;DHT22;12457;50.832;4.346;2023-04-15T08:07:37;10.20;62.30
24338;DHT22;12457;50.832;4.346;2023-04-15T08:10:04;10.30;66.80
24338;DHT22;12457;50.832;4.346;2023-04-15T08:12:30;10.30;67.70
24338;DHT22;12457;50.832;4.346;2023-04-15T08:14:56;10.40;72.50
24338;DHT22;12457;50.832;4.346;2023-04-15T08:17:22;10.60;72.00
24338;DHT22;12457;50.832;4.346;2023-04-15T08:19:48;10.70;63.00
24338;DHT22;12457;50.832;4.346;2023-04-15T08:22:14;10.60;48.60
24338;DHT22;12457;50.832;4.346;2023-04-15T08:24:40;10.70;43.50
24338;DHT22;12457;50.832;4.346;2023-04-15T08:27:06;10.80;28.70
24338;DHT22;12457;50.832;4.346;2023-04-15T08:29:32;10.80;36.10
24338;DHT22;12457;50.832;4.346;2023-04-15T08:31:59;10.80;23.30
24338;DHT22;12457;50.832;4.346;2023-04-15T08:34:26;10.80;10.10
24338;DHT22;12457;50.832;4.346;2023-04-15T08:36:52;10.90;14.20
24338;DHT22;12457;50.832;4.346;2023-04-15T08:39:49;11.00;10.90
24338;DHT22;12457;50.832;4.346;2023-04-15T08:42:31;11.10;10.00
24338;DHT22;12457;50.832;4.346;2023-04-15T08:44:59;11.30;10.70
24338;DHT22;12457;50.832;4.346;2023-04-15T08:47:29;11.30;1.00
24338;DHT22;12457;50.832;4.346;2023-04-15T08:49:57;11.40;6.40
24338;DHT22;12457;50.832;4.346;2023-04-15T08:52:26;11.40;6.50
24338;DHT22;12457;50.832;4.346;2023-04-15T08:54:55;11.50;5.70
24338;DHT22;12457;50.832;4.346;2023-04-15T08:57:25;11.80;1.00
24338;DHT22;12457;50.832;4.346;2023-04-15T08:59:52;12.10;1.00
24338;DHT22;12457;50.832;4.346;2023-04-15T09:02:19;12.20;1.00
24338;DHT22;12457;50.832;4.346;2023-04-15T09:04:45;12.30;1.00
24338;DHT22;12457;50.832;4.346;2023-04-15T09:07:12;12.50;4.20
24338;DHT22;12457;50.832;4.346;2023-04-15T09:09:48;12.60;1.00
24338;DHT22;12457;50.832;4.346;2023-04-15T09:12:13;12.40;1.00
24338;DHT22;12457;50.832;4.346;2023-04-15T09:14:44;12.40;1.00
24338;DHT22;12457;50.832;4.346;2023-04-15T09:17:10;12.50;1.00
24338;DHT22;12457;50.832;4.346;2023-04-15T09:19:36;12.40;1.00
24338;DHT22;12457;50.832;4.346;2023-04-15T09:22:02;12.60;1.00
24338;DHT22;12457;50.832;4.346;2023-04-15T09:24:38;12.70;1.00
24338;DHT22;12457;50.832;4.346;2023-04-15T09:27:05;12.80;1.00
24338;DHT22;12457;50.832;4.346;2023-04-15T09:29:31;12.90;1.00
24338;DHT22;12457;50.832;4.346;2023-04-15T09:32:09;13.00;1.00
24338;DHT22;12457;50.832;4.346;2023-04-15T09:34:35;13.10;1.00
24338;DHT22;12457;50.832;4.346;2023-04-15T09:37:01;13.20;1.00
24338;DHT22;12457;50.832;4.346;2023-04-15T09:39:47;13.30;1.00
24338;DHT22;12457;50.832;4.346;2023-04-15T09:42:14;13.40;1.00
24338;DHT22;12457;50.832;4.346;2023-04-15T09:44:41;13.40;1.00
24338;DHT22;12457;50.832;4.346;2023-04-15T09:47:07;13.40;1.00
24338;DHT22;12457;50.832;4.346;2023-04-15T09:49:32;13.50;1.00
24338;DHT22;12457;50.832;4.346;2023-04-15T09:52:02;13.70;1.00
24338;DHT22;12457;50.832;4.346;2023-04-15T09:54:36;13.80;1.00
24338;DHT22;12457;50.832;4.346;2023-04-15T09:57:17;13.80;1.00
24338;DHT22;12457;50.832;4.346;2023-04-15T09:59:43;13.80;1.00
24338;DHT22;12457;50.832;4.346;2023-04-15T10:02:10;13.80;1.00
24338;DHT22;12457;50.832;4.346;2023-04-15T10:04:39;13.70;1.00
24338;DHT22;12457;50.832;4.346;2023-04-15T10:07:10;13.80;1.00
24338;DHT22;12457;50.832;4.346;2023-04-15T10:09:37;13.90;1.00
24338;DHT22;12457;50.832;4.346;2023-04-15T10:12:04;14.10;1.00
24338;DHT22;12457;50.832;4.346;2023-04-15T10:14:37;14.00;99.90
24338;DHT22;12457;50.832;4.346;2023-04-15T10:17:04;13.90;99.90
24338;DHT22;12457;50.832;4.346;2023-04-15T10:19:33;13.80;1.00
24338;DHT22;12457;50.832;4.346;2023-04-15T10:22:01;13.90;1.00
24338;DHT22;12457;50.832;4.346;2023-04-15T10:24:30;13.90;1.00
24338;DHT22;12457;50.832;4.346;2023-04-15T10:27:06;14.00;1.00
24338;DHT22;12457;50.832;4.346;2023-04-15T10:29:33;14.00;1.00
24338;DHT22;12457;50.832;4.346;2023-04-15T10:32:00;14.00;99.90
24338;DHT22;12457;50.832;4.346;2023-04-15T10:34:26;14.00;1.00
24338;DHT22;12457;50.832;4.346;2023-04-15T10:36:57;14.20;1.00
24338;DHT22;12457;50.832;4.346;2023-04-15T10:42:12;14.40;1.00
24338;DHT22;12457;50.832;4.346;2023-04-15T10:44:40;14.50;99.90
24338;DHT22;12457;50.832;4.346;2023-04-15T10:47:13;14.60;99.90
24338;DHT22;12457;50.832;4.346;2023-04-15T10:49:48;14.50;92.50
24338;DHT22;12457;50.832;4.346;2023-04-15T10:52:15;14.40;1.00
24338;DHT22;12457;50.832;4.346;2023-04-15T10:54:42;14.20;99.90
24338;DHT22;12457;50.832;4.346;2023-04-15T10:57:33;14.10;99.90
24338;DHT22;12457;50.832;4.346;2023-04-15T11:00:02;14.30;51.50
24338;DHT22;12457;50.832;4.346;2023-04-15T11:05:04;14.50;99.90
24338;DHT22;12457;50.832;4.346;2023-04-15T11:07:47;14.50;99.90
24338;DHT22;12457;50.832;4.346;2023-04-15T11:13:02;14.80;99.90
24338;DHT22;12457;50.832;4.346;2023-04-15T11:15:32;14.70;1.00
24338;DHT22;12457;50.832;4.346;2023-04-15T11:21:03;14.60;99.90
24338;DHT22;12457;50.832;4.346;2023-04-15T11:23:43;14.50;99.90
24338;DHT22;12457;50.832;4.346;2023-04-15T11:26:11;14.60;1.00
24338;DHT22;12457;50.832;4.346;2023-04-15T11:28:44;14.60;1.00
24338;DHT22;12457;50.832;4.346;2023-04-15T11:31:17;14.70;1.00
24338;DHT22;12457;50.832;4.346;2023-04-15T11:36:19;14.90;1.00
24338;DHT22;12457;50.832;4.346;2023-04-15T11:38:47;15.00;99.90
24338;DHT22;12457;50.832;4.346;2023-04-15T11:41:13;15.00;99.90
24338;DHT22;12457;50.832;4.346;2023-04-15T11:43:39;14.90;79.40
24338;DHT22;12457;50.832;4.346;2023-04-15T11:46:05;14.90;99.90
24338;DHT22;12457;50.832;4.346;2023-04-15T11:48:34;15.00;99.90
24338;DHT22;12457;50.832;4.346;2023-04-15T11:51:05;14.90;31.80
24338;DHT22;12457;50.832;4.346;2023-04-15T11:53:41;14.90;1.00
24338;DHT22;12457;50.832;4.346;2023-04-15T11:56:08;15.00;99.90
24338;DHT22;12457;50.832;4.346;2023-04-15T11:58:35;15.00;1.00
24338;DHT22;12457;50.832;4.346;2023-04-15T12:01:03;15.00;99.90
24338;DHT22;12457;50.832;4.346;2023-04-15T12:03:47;15.00;99.90
24338;DHT22;12457;50.832;4.346;2023-04-15T12:06:21;15.10;99.90
24338;DHT22;12457;50.832;4.346;2023-04-15T12:13:49;15.20;11.20
24338;DHT22;12457;50.832;4.346;2023-04-15T12:16:19;15.20;1.00
24338;DHT22;12457;50.832;4.346;2023-04-15T12:18:46;15.20;1.00
24338;DHT22;12457;50.832;4.346;2023-04-15T12:21:12;15.00;1.00
24338;DHT22;12457;50.832;4.346;2023-04-15T12:23:50;15.10;1.00
24338;DHT22;12457;50.832;4.346;2023-04-15T12:26:16;15.20;1.00
24338;DHT22;12457;50.832;4.346;2023-04-15T12:28:43;15.20;1.00
24338;DHT22;12457;50.832;4.346;2023-04-15T12:31:10;15.20;1.00
24338;DHT22;12457;50.832;4.346;2023-04-15T12:33:36;15.30;1.00
24338;DHT22;12457;50.832;4.346;2023-04-15T12:36:03;15.30;29.80
24338;DHT22;12457;50.832;4.346;2023-04-15T12:38:30;15.40;2.10
24338;DHT22;12457;50.832;4.346;2023-04-15T12:40:57;15.30;1.00
24338;DHT22;12457;50.832;4.346;2023-04-15T12:43:24;15.30;1.00
24338;DHT22;12457;50.832;4.346;2023-04-15T12:45:49;15.50;1.00
24338;DHT22;12457;50.832;4.346;2023-04-15T12:48:15;15.50;1.00
24338;DHT22;12457;50.832;4.346;2023-04-15T12:50:41;15.40;1.00
24338;DHT22;12457;50.832;4.346;2023-04-15T12:53:06;15.40;99.90
24338;DHT22;12457;50.832;4.346;2023-04-15T12:55:32;15.40;99.90
24338;DHT22;12457;50.832;4.346;2023-04-15T12:57:58;15.60;99.90
24338;DHT22;12457;50.832;4.346;2023-04-15T13:00:23;15.60;5.70
24338;DHT22;12457;50.832;4.346;2023-04-15T13:02:49;15.60;31.30
24338;DHT22;12457;50.832;4.346;2023-04-15T13:05:15;15.40;99.90
24338;DHT22;12457;50.832;4.346;2023-04-15T13:07:41;15.30;99.90
24338;DHT22;12457;50.832;4.346;2023-04-15T13:10:09;15.20;11.80
24338;DHT22;12457;50.832;4.346;2023-04-15T13:12:36;15.20;26.40
24338;DHT22;12457;50.832;4.346;2023-04-15T13:15:04;15.30;46.10
24338;DHT22;12457;50.832;4.346;2023-04-15T13:17:30;15.40;56.30
24338;DHT22;12457;50.832;4.346;2023-04-15T13:19:56;15.40;56.50
24338;DHT22;12457;50.832;4.346;2023-04-15T13:22:22;15.40;56.60
24338;DHT22;12457;50.832;4.346;2023-04-15T13:24:47;15.30;58.00
24338;DHT22;12457;50.832;4.346;2023-04-15T13:27:14;15.50;61.10
24338;DHT22;12457;50.832;4.346;2023-04-15T13:29:40;15.40;62.90
24338;DHT22;12457;50.832;4.346;2023-04-15T13:32:06;15.40;64.00
24338;DHT22;12457;50.832;4.346;2023-04-15T13:34:31;15.40;19.80
24338;DHT22;12457;50.832;4.346;2023-04-15T13:36:57;15.60;99.90
24338;DHT22;12457;50.832;4.346;2023-04-15T13:39:23;15.70;99.90
24338;DHT22;12457;50.832;4.346;2023-04-15T13:41:50;15.90;1.00
24338;DHT22;12457;50.832;4.346;2023-04-15T13:44:16;15.80;99.90
24338;DHT22;12457;50.832;4.346;2023-04-15T13:46:42;15.70;99.90
24338;DHT22;12457;50.832;4.346;2023-04-15T13:49:09;15.70;99.90
24338;DHT22;12457;50.832;4.346;2023-04-15T13:51:34;15.80;99.90
24338;DHT22;12457;50.832;4.346;2023-04-15T13:54:01;15.80;99.90
24338;DHT22;12457;50.832;4.346;2023-04-15T13:56:29;15.60;99.90
24338;DHT22;12457;50.832;4.346;2023-04-15T13:58:55;15.60;99.90
24338;DHT22;12457;50.832;4.346;2023-04-15T14:01:24;15.60;93.10
24338;DHT22;12457;50.832;4.346;2023-04-15T14:03:51;15.70;79.20
24338;DHT22;12457;50.832;4.346;2023-04-15T14:06:18;15.70;99.90
24338;DHT22;12457;50.832;4.346;2023-04-15T14:08:45;15.80;99.90
24338;DHT22;12457;50.832;4.346;2023-04-15T14:11:11;15.90;99.90
24338;DHT22;12457;50.832;4.346;2023-04-15T14:13:37;16.10;99.90
24338;DHT22;12457;50.832;4.346;2023-04-15T14:16:02;16.10;1.00
24338;DHT22;12457;50.832;4.346;2023-04-15T14:18:28;16.30;1.00
24338;DHT22;12457;50.832;4.346;2023-04-15T14:20:56;16.40;99.90
24338;DHT22;12457;50.832;4.346;2023-04-15T14:23:22;16.60;99.90
24338;DHT22;12457;50.832;4.346;2023-04-15T14:25:49;16.20;99.90
24338;DHT22;12457;50.832;4.346;2023-04-15T14:28:18;15.80;99.90
24338;DHT22;12457;50.832;4.346;2023-04-15T14:30:44;15.70;99.90
24338;DHT22;12457;50.832;4.346;2023-04-15T14:33:10;15.80;1.00
24338;DHT22;12457;50.832;4.346;2023-04-15T14:35:36;15.80;1.00
24338;DHT22;12457;50.832;4.346;2023-04-15T14:38:02;15.90;99.90
24338;DHT22;12457;50.832;4.346;2023-04-15T14:40:30;15.90;99.90
24338;DHT22;12457;50.832;4.346;2023-04-15T14:42:58;15.70;99.90
24338;DHT22;12457;50.832;4.346;2023-04-15T14:45:24;15.60;99.90
24338;DHT22;12457;50.832;4.346;2023-04-15T14:47:49;15.60;99.90
24338;DHT22;12457;50.832;4.346;2023-04-15T14:50:17;15.80;99.90
24338;DHT22;12457;50.832;4.346;2023-04-15T14:52:43;15.70;99.90
24338;DHT22;12457;50.832;4.346;2023-04-15T14:55:10;15.50;99.90
24338;DHT22;12457;50.832;4.346;2023-04-15T14:57:40;15.40;99.90
24338;DHT22;12457;50.832;4.346;2023-04-15T15:00:07;15.30;99.90
24338;DHT22;12457;50.832;4.346;2023-04-15T15:02:35;15.20;99.90
24338;DHT22;12457;50.832;4.346;2023-04-15T15:05:01;15.30;1.00
24338;DHT22;12457;50.832;4.346;2023-04-15T15:07:27;15.60;38.90
24338;DHT22;12457;50.832;4.346;2023-04-15T15:09:54;15.60;99.90
24338;DHT22;12457;50.832;4.346;2023-04-15T15:12:21;15.60;99.90
24338;DHT22;12457;50.832;4.346;2023-04-15T15:14:48;15.60;1.00
24338;DHT22;12457;50.832;4.346;2023-04-15T15:17:14;15.70;99.90
24338;DHT22;12457;50.832;4.346;2023-04-15T15:19:41;15.90;1.00
24338;DHT22;12457;50.832;4.346;2023-04-15T15:22:07;15.80;1.00
24338;DHT22;12457;50.832;4.346;2023-04-15T15:24:33;15.80;1.00
24338;DHT22;12457;50.832;4.346;2023-04-15T15:26:58;15.80;99.90
24338;DHT22;12457;50.832;4.346;2023-04-15T15:29:24;15.70;1.00
24338;DHT22;12457;50.832;4.346;2023-04-15T15:31:50;15.60;1.00
24338;DHT22;12457;50.832;4.346;2023-04-15T15:34:15;15.70;1.00
24338;DHT22;12457;50.832;4.346;2023-04-15T15:36:42;15.70;99.90
24338;DHT22;12457;50.832;4.346;2023-04-15T15:39:07;15.60;99.90
24338;DHT22;12457;50.832;4.346;2023-04-15T15:41:33;15.70;99.90
24338;DHT22;12457;50.832;4.346;2023-04-15T15:43:59;16.00;99.90
24338;DHT22;12457;50.832;4.346;2023-04-15T15:46:26;16.20;99.90
24338;DHT22;12457;50.832;4.346;2023-04-15T15:48:53;16.20;99.90
24338;DHT22;12457;50.832;4.346;2023-04-15T15:51:19;16.10;99.90
24338;DHT22;12457;50.832;4.346;2023-04-15T15:53:45;15.80;99.90
24338;DHT22;12457;50.832;4.346;2023-04-15T15:56:11;15.40;1.00